Adventure of The Seas — C6SA3 — position and weather

sailwx.info

Track history (hours):
 
Tides and Currents Weather Stations Pressure Air Temp Water Temp Dewpoint Dewpoint Depression Visibility Wind Speed Wind Dir Waves Ship Positions

Adventure of The Seas

Operator: Royal Caribbean Cruises Ltd

Last reported at 2016-May-03 23:33 UTC. Time now 2016-May-03 23:54 UTC.
Position N 16°46' W 062°03'.

Type: Passenger vessel. MMSI: 311263000.

Date/timePositionNaut miles runAvg speedWind from/ knotsBaromVisibWave heightAir tempDewpointWater temp
2016-May-03 23:33N 16°46' W 062°03'1515.0
2016-May-03 22:33N 17°01' W 062°01'10 9.6
2016-May-03 21:33N 17°09' W 061°54'4 3.6
2016-May-03 20:32N 17°07' W 061°51'0 0.0
2016-May-03 19:32N 17°07' W 061°51'0 0.0
2016-May-03 18:32N 17°07' W 061°51'0 0.0
2016-May-03 17:32N 17°07' W 061°51'0 0.0
2016-May-03 16:32N 17°07' W 061°51'0 0.0
2016-May-03 15:26N 17°07' W 061°51'0 0.0
2016-May-03 14:32N 17°07' W 061°51'0 0.0
2016-May-03 13:32N 17°07' W 061°51'0 0.0
2016-May-03 12:32N 17°07' W 061°51'1 0.5
2016-May-03 11:34N 17°07' W 061°51'1212.0
2016-May-03 10:34N 17°14' W 062°02'1313.2
2016-May-03 09:34N 17°20' W 062°14'1413.6
2016-May-03 08:33N 17°26' W 062°27'3014.0
2016-May-03 06:24N 17°37' W 062°56'1214.3
2016-May-03 05:32N 17°43' W 063°08'106 3.5
2016-May-01 23:24N 18°11' W 064°55'5 6.2
2016-May-01 22:33N 18°16' W 064°55'64 3.2
2016-May-01 02:17N 18°36' W 065°59'6 8.3
2016-May-01 01:33N 18°33' W 066°04'6 6.1
2016-May-01 00:33N 18°28' W 066°06'0 0.4
2016-Apr-30 23:33N 18°28' W 066°06'0 0.0
2016-Apr-30 22:33N 18°28' W 066°06'0 0.0
2016-Apr-30 21:27N 18°28' W 066°06'0 0.0
2016-Apr-30 20:09N 18°28' W 066°06'0 0.0
2016-Apr-30 18:15N 18°28' W 066°06'0 0.0
2016-Apr-30 17:27N 18°28' W 066°06'0 0.0
2016-Apr-30 16:30N 18°28' W 066°06'0 0.0
2016-Apr-30 15:33N 18°28' W 066°06'0 0.0
2016-Apr-30 14:27N 18°28' W 066°06'0 0.0
2016-Apr-30 13:06N 18°28' W 066°06'0 0.0
2016-Apr-30 12:24N 18°28' W 066°06'0 0.0
2016-Apr-30 11:33N 18°28' W 066°06'0 0.0
2016-Apr-30 10:33N 18°28' W 066°06'0 0.0
2016-Apr-30 09:33N 18°28' W 066°06'4 4.4
2016-Apr-30 08:33N 18°32' W 066°06'7412.2
2016-Apr-30 02:32N 18°09' W 064°52'  
2016-Apr-27 09:27N 15°34' W 061°41'5614.5
2016-Apr-27 05:33N 16°19' W 062°16'1715.6
2016-Apr-27 04:26N 16°33' W 062°27'8414.3
2016-Apr-26 22:33N 17°49' W 063°06'1211.4
2016-Apr-26 21:30N 18°00' W 063°03'0 0.0
2016-Apr-26 11:22N 18°00' W 063°03'6 7.2
2016-Apr-26 10:33N 17°55' W 063°06'9 8.3
2016-Apr-26 09:30N 17°47' W 063°07'8 7.4
2016-Apr-26 08:26N 17°39' W 063°08'31 1.2
2016-Apr-25 07:33N 17°11' W 063°22'175 5.9
2016-Apr-24 01:33N 18°37' W 066°03'1010.0
2016-Apr-24 00:33N 18°28' W 066°07'  
Track history (hours):
 
Tides and Currents Weather Stations Pressure Air Temp Water Temp Dewpoint Dewpoint Depression Visibility Wind Speed Wind Dir Waves Ship Positions

Adventure of The Seas

Operator: Royal Caribbean Cruises Ltd

Last reported at 2016-May-03 23:33 UTC. Time now 2016-May-03 23:54 UTC.
Position N 16°46' W 062°03'.

Type: Passenger vessel. MMSI: 311263000.

Date/timePositionNaut miles runAvg speedWind from/ knotsBaromVisibWave heightAir tempDewpointWater temp
2016-May-03 23:33N 16°46' W 062°03'1515.0
2016-May-03 22:33N 17°01' W 062°01'10 9.6
2016-May-03 21:33N 17°09' W 061°54'4 3.6
2016-May-03 20:32N 17°07' W 061°51'0 0.0
2016-May-03 19:32N 17°07' W 061°51'0 0.0
2016-May-03 18:32N 17°07' W 061°51'0 0.0
2016-May-03 17:32N 17°07' W 061°51'0 0.0
2016-May-03 16:32N 17°07' W 061°51'0 0.0
2016-May-03 15:26N 17°07' W 061°51'0 0.0
2016-May-03 14:32N 17°07' W 061°51'0 0.0
2016-May-03 13:32N 17°07' W 061°51'0 0.0
2016-May-03 12:32N 17°07' W 061°51'1 0.5
2016-May-03 11:34N 17°07' W 061°51'1212.0
2016-May-03 10:34N 17°14' W 062°02'1313.2
2016-May-03 09:34N 17°20' W 062°14'1413.6
2016-May-03 08:33N 17°26' W 062°27'3014.0
2016-May-03 06:24N 17°37' W 062°56'1214.3
2016-May-03 05:32N 17°43' W 063°08'106 3.5
2016-May-01 23:24N 18°11' W 064°55'5 6.2
2016-May-01 22:33N 18°16' W 064°55'64 3.2
2016-May-01 02:17N 18°36' W 065°59'6 8.3
2016-May-01 01:33N 18°33' W 066°04'6 6.1
2016-May-01 00:33N 18°28' W 066°06'0 0.4
2016-Apr-30 23:33N 18°28' W 066°06'0 0.0
2016-Apr-30 22:33N 18°28' W 066°06'0 0.0
2016-Apr-30 21:27N 18°28' W 066°06'0 0.0
2016-Apr-30 20:09N 18°28' W 066°06'0 0.0
2016-Apr-30 18:15N 18°28' W 066°06'0 0.0
2016-Apr-30 17:27N 18°28' W 066°06'0 0.0
2016-Apr-30 16:30N 18°28' W 066°06'0 0.0
2016-Apr-30 15:33N 18°28' W 066°06'0 0.0
2016-Apr-30 14:27N 18°28' W 066°06'0 0.0
2016-Apr-30 13:06N 18°28' W 066°06'0 0.0
2016-Apr-30 12:24N 18°28' W 066°06'0 0.0
2016-Apr-30 11:33N 18°28' W 066°06'0 0.0
2016-Apr-30 10:33N 18°28' W 066°06'0 0.0
2016-Apr-30 09:33N 18°28' W 066°06'4 4.4
2016-Apr-30 08:33N 18°32' W 066°06'7412.2
2016-Apr-30 02:32N 18°09' W 064°52'  
2016-Apr-27 09:27N 15°34' W 061°41'5614.5
2016-Apr-27 05:33N 16°19' W 062°16'1715.6
2016-Apr-27 04:26N 16°33' W 062°27'8414.3
2016-Apr-26 22:33N 17°49' W 063°06'1211.4
2016-Apr-26 21:30N 18°00' W 063°03'0 0.0
2016-Apr-26 11:22N 18°00' W 063°03'6 7.2
2016-Apr-26 10:33N 17°55' W 063°06'9 8.3
2016-Apr-26 09:30N 17°47' W 063°07'8 7.4
2016-Apr-26 08:26N 17°39' W 063°08'31 1.2
2016-Apr-25 07:33N 17°11' W 063°22'175 5.9
2016-Apr-24 01:33N 18°37' W 066°03'1010.0
2016-Apr-24 00:33N 18°28' W 066°07'  

Dump ship's entire track history